EST,Max TemperatureF,Mean TemperatureF,Min TemperatureF,Max Dew PointF,MeanDew PointF,Min DewpointF,Max Humidity, Mean Humidity, Min Humidity, Max Sea Level PressureIn, Mean Sea Level PressureIn, Min Sea Level PressureIn, Max VisibilityMiles, Mean VisibilityMiles, Min VisibilityMiles, Max Wind SpeedMPH, Mean Wind SpeedMPH, Max Gust SpeedMPH,PrecipitationIn, CloudCover, Events, WindDirDegrees
2012-2-1,69,58,48,45,36,30,71,49,31,30.09,30.05,29.98,19,10,10,14,6,21,0.00,4,,212
2012-2-2,59,49,37,48,39,25,93,74,41,30.35,30.09,29.98,10,8,2,21,4,28,0.00,5,Rain,322
2012-2-3,51,38,26,37,25,21,86,67,40,30.53,30.42,30.36,10,10,10,10,5,,0.00,0,,345
2012-2-4,42,33,24,34,27,21,93,81,61,30.38,30.25,30.13,10,8,4,10,1,,0.00,4,,3
2012-2-5,42,38,35,32,30,27,87,76,53,30.19,30.15,30.09,10,7,4,13,5,18,0.00,7,Rain,350
2012-2-6,51,35,19,30,22,18,93,74,35,30.27,30.20,30.08,10,10,6,9,1,,0.00,0,,203
2012-2-7,55,40,24,30,26,19,86,66,33,30.25,30.14,30.09,10,10,10,15,2,,0.00,2,,352
2012-2-8,42,35,28,32,27,21,87,75,53,30.27,30.22,30.14,10,8,2,6,3,,0.00,3,Rain,356
2012-2-9,51,38,26,28,24,16,93,69,29,30.28,30.21,30.17,10,9,1,14,4,18,0.00,1,,332
2012-2-10,46,36,26,39,24,19,86,67,42,30.20,30.11,29.91,10,10,7,12,2,,0.00,2,,339
2012-2-11,41,31,21,32,24,7,87,74,44,29.93,29.83,29.68,10,6,2,30,9,40,0.00,8,,340
2012-2-12,32,26,19,14,7,5,74,49,37,30.16,30.07,29.94,10,10,3,29,18,38,0.00,3,,310
2012-2-13,46,30,15,23,13,9,79,63,25,30.28,30.15,30.09,10,10,10,9,2,,0.00,0,,210
2012-2-14,53,42,30,32,25,21,80,57,35,30.09,30.04,29.94,10,10,10,12,1,23,0.00,7,,211
2012-2-15,53,43,33,32,28,27,81,59,35,30.31,30.20,30.02,10,10,10,18,5,25,0.00,3,,343
2012-2-16,44,40,35,39,33,28,93,77,66,30.30,30.19,30.03,10,8,0,9,1,,0.00,8,Fog-Rain,164
2012-2-17,53,40,28,36,31,21,93,74,33,30.11,30.06,30.01,10,5,0,17,3,25,0.00,4,Fog,321
2012-2-18,57,40,24,30,24,19,86,66,33,30.14,30.08,29.91,10,10,8,17,2,21,0.00,0,,287
2012-2-19,42,38,33,30,23,18,87,58,42,30.12,30.04,29.90,10,8,2,16,9,20,0.00,4,Snow,11
2012-2-20,48,36,21,30,22,16,87,63,30,30.36,30.17,29.98,10,9,4,16,6,22,0.00,2,,352
2012-2-21,50,34,19,34,22,16,86,72,40,30.35,30.20,29.88,10,10,9,15,2,24,0.00,2,,192
2012-2-22,62,45,28,39,31,25,93,62,29,29.88,29.75,29.49,10,10,10,20,6,24,0.00,3,,197
2012-2-23,64,52,39,43,39,34,87,63,34,29.65,29.56,29.49,10,10,10,12,6,,0.00,3,,181
2012-2-24,59,52,42,52,41,25,88,72,38,29.72,29.52,29.36,10,9,3,20,7,28,0.00,5,Rain,345
2012-2-25,44,40,35,25,18,10,65,43,31,30.30,29.93,29.72,10,10,10,24,12,34,0.00,3,,281
2012-2-26,48,38,28,19,15,12,69,47,27,30.50,30.40,30.31,10,10,10,13,6,16,0.00,0,,287
2012-2-27,64,44,24,37,24,18,80,62,24,30.41,30.33,30.16,10,10,10,16,2,21,0.00,0,,215
2012-2-28,55,45,33,34,23,18,81,47,23,30.49,30.39,30.28,10,10,10,16,6,22,0.00,0,,347
2012-2-29,55,42,30,54,35,25,94,79,70,30.32,30.09,29.72,10,8,1,12,3,,0.00,5,Rain-Thunderstorm,168